Time;durP1;ratioP1;P1;durP2;ratioP2;P2;SDS_P1;SDS_P2;PMS_P1;PMS_P2;Temp;Humidity;BMP_temperature;BMP_pressure;BME280_temperature;BME280_humidity;BME280_pressure;Samples;Min_cycle;Max_cycle;Signal;HPM_P1;HPM_P2
2022/05/07 00:00:50;;;;;;;;;;;12.10;99.90;;;;;;5156493;27;20002;-75
2022/05/07 00:03:16;;;;;;;;;;;12.10;99.90;;;;;;5137381;27;19907;-75
2022/05/07 00:05:41;;;;;;;;;;;12.10;99.90;;;;;;5156366;27;19959;-75
2022/05/07 00:08:07;;;;;;;;;;;12.00;99.90;;;;;;5155965;27;19907;-75
2022/05/07 00:10:32;;;;;;;;;;;11.90;99.90;;;;;;5156578;27;19911;-75
2022/05/07 00:12:58;;;;;;;;;;;11.90;99.90;;;;;;5156374;27;19914;-75
2022/05/07 00:15:24;;;;;;;;;;;11.90;99.90;;;;;;5137317;27;19946;-75
2022/05/07 00:18:03;;;;;;;;;;;11.80;99.90;;;;;;5137868;27;19939;-75
2022/05/07 00:20:29;;;;;;;;;;;11.80;99.90;;;;;;5155511;27;19915;-75
2022/05/07 00:22:55;;;;;;;;;;;11.70;99.90;;;;;;5156284;27;19914;-75
2022/05/07 00:25:20;;;;;;;;;;;11.70;99.90;;;;;;5155584;27;19907;-75
2022/05/07 00:27:46;;;;;;;;;;;11.60;99.90;;;;;;5156469;27;19907;-75
2022/05/07 00:30:11;;;;;;;;;;;11.60;99.90;;;;;;5155127;27;19907;-75
2022/05/07 00:32:37;;;;;;;;;;;11.50;99.90;;;;;;5155844;27;19907;-75
2022/05/07 00:35:03;;;;;;;;;;;11.50;99.90;;;;;;5155517;27;19919;-75
2022/05/07 00:37:28;;;;;;;;;;;11.50;99.90;;;;;;5155023;27;19907;-75
2022/05/07 00:39:54;;;;;;;;;;;11.50;99.90;;;;;;5156034;27;19916;-75
2022/05/07 00:42:22;;;;;;;;;;;11.50;99.90;;;;;;5155047;27;19907;-75
2022/05/07 00:44:48;;;;;;;;;;;11.50;99.90;;;;;;5155090;27;19914;-75
2022/05/07 00:47:13;;;;;;;;;;;11.40;99.90;;;;;;5155333;27;20330;-75
2022/05/07 00:49:40;;;;;;;;;;;11.50;99.90;;;;;;5155370;27;19914;-75
2022/05/07 00:52:06;;;;;;;;;;;11.50;99.90;;;;;;5155594;27;19907;-75
2022/05/07 00:54:31;;;;;;;;;;;11.50;99.90;;;;;;5154794;27;20006;-75
2022/05/07 00:56:57;;;;;;;;;;;11.60;99.90;;;;;;5155159;27;19926;-75
2022/05/07 00:59:23;;;;;;;;;;;11.60;99.90;;;;;;5154855;27;19986;-75
2022/05/07 01:01:49;;;;;;;;;;;11.50;99.90;;;;;;5136927;27;20249;-75
2022/05/07 01:04:14;;;;;;;;;;;11.40;99.90;;;;;;5154739;27;19993;-75
2022/05/07 01:06:40;;;;;;;;;;;11.30;99.90;;;;;;5155301;27;19958;-75
2022/05/07 01:09:06;;;;;;;;;;;11.30;99.90;;;;;;5155134;27;19907;-75
2022/05/07 01:11:33;;;;;;;;;;;11.30;99.90;;;;;;5154767;27;19907;-75
2022/05/07 01:13:59;;;;;;;;;;;11.20;99.90;;;;;;5159446;27;19994;-75
2022/05/07 01:16:24;;;;;;;;;;;11.20;99.90;;;;;;5154375;27;20391;-75
2022/05/07 01:18:50;;;;;;;;;;;11.10;99.90;;;;;;5155308;27;19908;-75
2022/05/07 01:21:17;;;;;;;;;;;11.10;99.90;;;;;;5154420;27;19907;-75
2022/05/07 01:23:43;;;;;;;;;;;11.00;99.90;;;;;;5155081;27;19915;-75
2022/05/07 01:26:09;;;;;;;;;;;11.00;99.90;;;;;;5154718;27;19914;-75
2022/05/07 01:28:35;;;;;;;;;;;11.00;99.90;;;;;;5154721;27;19911;-75
2022/05/07 01:31:01;;;;;;;;;;;11.00;99.90;;;;;;5154951;27;19907;-75
2022/05/07 01:33:27;;;;;;;;;;;11.00;99.90;;;;;;5154030;27;20303;-75
2022/05/07 01:35:52;;;;;;;;;;;11.00;99.90;;;;;;5136096;27;19921;-75
2022/05/07 01:38:18;;;;;;;;;;;11.10;99.90;;;;;;5154372;27;19953;-75
2022/05/07 01:40:44;;;;;;;;;;;11.10;99.90;;;;;;5154753;27;19907;-75
2022/05/07 01:43:09;;;;;;;;;;;11.10;99.90;;;;;;5154834;27;19907;-75
2022/05/07 01:45:35;;;;;;;;;;;11.00;99.90;;;;;;5153952;27;19907;-75
2022/05/07 01:48:09;;;;;;;;;;;11.10;99.90;;;;;;5154451;27;19907;-75
2022/05/07 01:50:36;;;;;;;;;;;11.00;99.90;;;;;;5154023;27;20002;-75
2022/05/07 01:53:02;;;;;;;;;;;10.90;99.90;;;;;;5154653;27;19907;-75
2022/05/07 01:55:28;;;;;;;;;;;10.80;99.90;;;;;;5153614;27;19915;-75
2022/05/07 01:57:53;;;;;;;;;;;10.70;99.90;;;;;;5154568;27;20001;-75
2022/05/07 02:00:19;;;;;;;;;;;10.70;99.90;;;;;;5153770;27;19907;-75
2022/05/07 02:02:45;;;;;;;;;;;10.70;99.90;;;;;;5154636;27;19968;-75
2022/05/07 02:05:10;;;;;;;;;;;10.70;99.90;;;;;;5154223;27;19914;-75
2022/05/07 02:07:36;;;;;;;;;;;10.70;99.90;;;;;;5154042;27;19915;-75
2022/05/07 02:10:01;;;;;;;;;;;10.60;99.90;;;;;;5154971;27;19911;-75
2022/05/07 02:12:27;;;;;;;;;;;10.40;99.90;;;;;;5153984;27;20362;-75
2022/05/07 02:14:52;;;;;;;;;;;10.40;99.90;;;;;;5154434;27;20326;-75
2022/05/07 02:17:18;;;;;;;;;;;10.40;99.90;;;;;;5153875;27;19914;-75
2022/05/07 02:19:44;;;;;;;;;;;10.30;99.90;;;;;;5135925;27;19907;-75
2022/05/07 02:22:09;;;;;;;;;;;10.30;99.90;;;;;;5154145;27;19947;-75
2022/05/07 02:24:35;;;;;;;;;;;10.20;99.90;;;;;;5153746;27;19911;-75
2022/05/07 02:27:00;;;;;;;;;;;10.10;99.90;;;;;;5153932;27;20267;-75
2022/05/07 02:29:26;;;;;;;;;;;10.10;99.90;;;;;;5154023;27;19996;-75
2022/05/07 02:32:04;;;;;;;;;;;10.10;99.90;;;;;;5154225;27;19911;-75
2022/05/07 02:34:30;;;;;;;;;;;10.10;99.90;;;;;;5153508;27;20006;-75
2022/05/07 02:36:56;;;;;;;;;;;10.20;99.90;;;;;;5154092;27;19976;-75
2022/05/07 02:39:22;;;;;;;;;;;10.20;99.90;;;;;;5153762;27;20343;-75
2022/05/07 02:44:32;;;;;;;;;;;10.30;99.90;;;;;;5153338;27;20398;-75
2022/05/07 02:46:57;;;;;;;;;;;10.30;99.90;;;;;;5153863;27;19907;-75
2022/05/07 02:49:23;;;;;;;;;;;10.40;99.90;;;;;;5153328;27;19911;-75
2022/05/07 02:51:48;;;;;;;;;;;10.30;99.90;;;;;;5154329;27;19928;-75
2022/05/07 02:54:14;;;;;;;;;;;10.20;99.90;;;;;;5153784;27;19914;-75
2022/05/07 02:56:39;;;;;;;;;;;10.20;99.90;;;;;;5152721;27;19921;-75
2022/05/07 02:59:05;;;;;;;;;;;10.10;99.90;;;;;;5153864;27;19907;-75
2022/05/07 03:01:31;;;;;;;;;;;10.10;99.90;;;;;;5153274;27;20001;-75
2022/05/07 03:03:56;;;;;;;;;;;10.00;99.90;;;;;;5153932;27;19907;-75
2022/05/07 03:06:22;;;;;;;;;;;10.00;99.90;;;;;;5153577;27;20261;-75
2022/05/07 03:08:47;;;;;;;;;;;10.00;99.90;;;;;;5138107;27;20005;-75
2022/05/07 03:11:14;;;;;;;;;;;10.00;99.90;;;;;;5158021;27;19911;-75
2022/05/07 03:13:40;;;;;;;;;;;10.00;99.90;;;;;;5157100;27;19911;-75
2022/05/07 03:16:06;;;;;;;;;;;10.00;99.90;;;;;;5157572;27;19963;-75
2022/05/07 03:18:32;;;;;;;;;;;10.10;99.90;;;;;;5156885;27;20319;-75
2022/05/07 03:20:58;;;;;;;;;;;10.20;99.90;;;;;;5157506;27;20363;-75
2022/05/07 03:23:25;;;;;;;;;;;10.30;99.90;;;;;;5156805;27;19907;-75
2022/05/07 03:25:51;;;;;;;;;;;10.30;99.90;;;;;;5157279;27;20372;-75
2022/05/07 03:28:16;;;;;;;;;;;10.40;99.90;;;;;;5156866;27;19911;-75
2022/05/07 03:30:42;;;;;;;;;;;10.50;99.90;;;;;;5156763;27;19911;-75
2022/05/07 03:33:07;;;;;;;;;;;10.50;99.90;;;;;;5157171;27;19907;-75
2022/05/07 03:35:33;;;;;;;;;;;10.60;99.90;;;;;;5156447;27;19915;-75
2022/05/07 03:37:58;;;;;;;;;;;10.70;99.90;;;;;;5157011;27;19940;-75
2022/05/07 03:40:24;;;;;;;;;;;10.80;99.90;;;;;;5156646;27;19922;-75
2022/05/07 03:42:50;;;;;;;;;;;10.80;99.90;;;;;;5157152;27;20001;-75
2022/05/07 03:45:15;;;;;;;;;;;10.80;99.90;;;;;;5156940;27;19907;-75
2022/05/07 03:47:41;;;;;;;;;;;10.80;99.90;;;;;;5156187;27;20030;-75
2022/05/07 03:50:07;;;;;;;;;;;10.70;99.90;;;;;;5156803;27;19914;-75
2022/05/07 03:55:16;;;;;;;;;;;10.80;99.90;;;;;;5156913;27;19918;-75
2022/05/07 03:57:42;;;;;;;;;;;10.80;99.90;;;;;;5155960;27;20452;-75
2022/05/07 04:00:08;;;;;;;;;;;10.90;99.90;;;;;;5138256;27;19967;-75
2022/05/07 04:02:35;;;;;;;;;;;10.80;99.90;;;;;;5156190;27;20365;-75
2022/05/07 04:05:04;;;;;;;;;;;10.90;99.90;;;;;;5138113;27;20271;-75
2022/05/07 04:07:30;;;;;;;;;;;10.80;99.90;;;;;;5137282;27;19950;-75
2022/05/07 04:09:56;;;;;;;;;;;10.90;99.90;;;;;;5156553;27;19954;-75
2022/05/07 04:12:22;;;;;;;;;;;11.00;99.90;;;;;;5156575;27;19907;-75
2022/05/07 04:14:47;;;;;;;;;;;11.00;99.90;;;;;;5155783;27;19950;-75
2022/05/07 04:17:13;;;;;;;;;;;11.10;99.90;;;;;;5156263;27;20402;-75
2022/05/07 04:19:39;;;;;;;;;;;11.00;99.90;;;;;;5155711;27;20006;-75
2022/05/07 04:22:04;;;;;;;;;;;10.90;99.90;;;;;;5156665;27;19907;-75
2022/05/07 04:24:33;;;;;;;;;;;11.00;99.90;;;;;;5155634;27;20412;-75
2022/05/07 04:26:58;;;;;;;;;;;11.00;99.90;;;;;;5155268;27;20465;-75
2022/05/07 04:29:24;;;;;;;;;;;10.90;99.90;;;;;;5155532;27;19911;-75
2022/05/07 04:31:50;;;;;;;;;;;10.90;99.90;;;;;;5156298;27;20412;-75
2022/05/07 04:34:15;;;;;;;;;;;10.90;99.90;;;;;;5156128;27;20279;-75
2022/05/07 04:36:41;;;;;;;;;;;10.90;99.90;;;;;;5154956;27;19915;-75
2022/05/07 04:39:06;;;;;;;;;;;10.90;99.90;;;;;;5155751;27;20002;-75
2022/05/07 04:41:32;;;;;;;;;;;10.90;99.90;;;;;;5155424;27;19915;-75
2022/05/07 04:43:58;;;;;;;;;;;10.90;99.90;;;;;;5156054;27;20271;-75
2022/05/07 04:46:24;;;;;;;;;;;11.00;99.90;;;;;;5155651;27;19918;-75
2022/05/07 04:48:49;;;;;;;;;;;11.00;99.90;;;;;;5155468;27;19907;-75
2022/05/07 04:51:15;;;;;;;;;;;10.90;99.90;;;;;;5137098;27;19994;-75
2022/05/07 04:53:41;;;;;;;;;;;11.00;99.90;;;;;;5155119;27;19967;-75
2022/05/07 04:56:06;;;;;;;;;;;10.80;99.90;;;;;;5155386;27;19921;-75
2022/05/07 04:58:32;;;;;;;;;;;10.80;99.90;;;;;;5154477;27;20375;-75
2022/05/07 05:00:57;;;;;;;;;;;10.90;99.90;;;;;;5137065;27;19911;-75
2022/05/07 05:03:23;;;;;;;;;;;10.80;99.90;;;;;;5155550;27;19911;-75
2022/05/07 05:05:48;;;;;;;;;;;10.90;99.90;;;;;;5154837;27;19956;-75
2022/05/07 05:08:14;;;;;;;;;;;11.00;99.90;;;;;;5155249;27;19914;-75
2022/05/07 05:10:39;;;;;;;;;;;10.90;99.90;;;;;;5154563;27;19959;-75
2022/05/07 05:13:05;;;;;;;;;;;10.80;99.90;;;;;;5155386;27;20386;-75
2022/05/07 05:15:32;;;;;;;;;;;10.80;99.90;;;;;;5154571;27;19915;-75
2022/05/07 05:17:59;;;;;;;;;;;10.80;99.90;;;;;;5155225;27;19907;-75
2022/05/07 05:20:25;;;;;;;;;;;10.80;99.90;;;;;;5155040;27;19947;-75
2022/05/07 05:22:51;;;;;;;;;;;10.90;99.90;;;;;;5154590;27;19992;-75
2022/05/07 05:25:18;;;;;;;;;;;10.90;99.90;;;;;;5155006;27;19908;-75
2022/05/07 05:27:44;;;;;;;;;;;11.00;99.90;;;;;;5154429;27;20275;-75
2022/05/07 05:30:10;;;;;;;;;;;11.00;99.90;;;;;;5154167;27;19914;-75
2022/05/07 05:32:35;;;;;;;;;;;11.00;99.90;;;;;;5154440;27;20275;-75
2022/05/07 05:35:02;;;;;;;;;;;11.10;99.90;;;;;;5154838;27;19919;-75
2022/05/07 05:37:28;;;;;;;;;;;11.20;99.90;;;;;;5154748;27;19913;-75
2022/05/07 05:39:53;;;;;;;;;;;11.20;99.90;;;;;;5154244;27;20005;-75
2022/05/07 05:42:19;;;;;;;;;;;11.20;99.90;;;;;;5154762;27;20422;-75
2022/05/07 05:44:44;;;;;;;;;;;11.20;99.90;;;;;;5153992;27;19914;-75
2022/05/07 05:47:10;;;;;;;;;;;11.20;99.90;;;;;;5154750;27;19994;-75
2022/05/07 05:49:36;;;;;;;;;;;11.20;99.90;;;;;;5154140;27;19914;-75
2022/05/07 05:52:04;;;;;;;;;;;11.30;99.90;;;;;;5154854;27;19913;-75
2022/05/07 05:54:30;;;;;;;;;;;11.30;99.90;;;;;;5154296;27;19913;-75
2022/05/07 05:56:56;;;;;;;;;;;11.40;99.90;;;;;;5154337;27;20002;-75
2022/05/07 05:59:22;;;;;;;;;;;11.40;99.90;;;;;;5154542;27;19911;-75
2022/05/07 06:01:47;;;;;;;;;;;11.50;99.90;;;;;;5154045;27;19990;-75
2022/05/07 06:04:14;;;;;;;;;;;11.50;99.90;;;;;;5154323;27;19911;-75
2022/05/07 06:06:40;;;;;;;;;;;11.50;99.90;;;;;;5153986;27;19907;-75
2022/05/07 06:09:06;;;;;;;;;;;11.50;99.90;;;;;;5154340;27;19907;-75
2022/05/07 06:11:31;;;;;;;;;;;11.40;99.90;;;;;;5153802;27;19914;-75
2022/05/07 06:13:57;;;;;;;;;;;11.50;99.90;;;;;;5154769;27;19914;-75
2022/05/07 06:16:23;;;;;;;;;;;11.50;99.90;;;;;;5153994;27;20358;-75
2022/05/07 06:18:49;;;;;;;;;;;11.50;99.90;;;;;;5153573;27;19990;-75
2022/05/07 06:21:15;;;;;;;;;;;11.40;99.90;;;;;;5154207;27;19914;-75
2022/05/07 06:23:40;;;;;;;;;;;11.40;99.90;;;;;;5153409;27;19907;-75
2022/05/07 06:28:50;;;;;;;;;;;11.10;99.90;;;;;;5153299;27;20018;-74
2022/05/07 06:31:17;;;;;;;;;;;11.10;99.90;;;;;;5153790;27;19907;-74
2022/05/07 06:33:43;;;;;;;;;;;11.00;99.90;;;;;;5153321;27;20332;-74
2022/05/07 06:36:09;;;;;;;;;;;10.90;99.90;;;;;;5154202;27;19962;-74
2022/05/07 06:38:35;;;;;;;;;;;10.90;99.90;;;;;;5153423;27;19949;-75
2022/05/07 06:41:02;;;;;;;;;;;10.80;99.90;;;;;;5154327;27;20359;-74
2022/05/07 06:43:31;;;;;;;;;;;10.80;99.90;;;;;;5156462;27;19995;-74
2022/05/07 06:45:57;;;;;;;;;;;10.80;99.90;;;;;;5157769;27;19954;-74
2022/05/07 06:48:23;;;;;;;;;;;10.80;99.90;;;;;;5158119;27;19915;-74
2022/05/07 06:50:49;;;;;;;;;;;10.70;99.90;;;;;;5157587;27;20370;-74
2022/05/07 06:53:14;;;;;;;;;;;10.80;99.90;;;;;;5158252;27;19911;-74
2022/05/07 06:55:55;;;;;;;;;;;10.90;99.90;;;;;;5157399;27;20260;-75
2022/05/07 06:58:21;;;;;;;;;;;11.00;99.90;;;;;;5158068;27;19958;-75
2022/05/07 07:00:47;;;;;;;;;;;11.20;99.90;;;;;;5157167;27;19908;-75
2022/05/07 07:03:12;;;;;;;;;;;11.20;99.90;;;;;;5157591;27;20253;-74
2022/05/07 07:05:38;;;;;;;;;;;11.20;99.90;;;;;;5138739;27;19907;-74
2022/05/07 07:08:04;;;;;;;;;;;11.30;99.90;;;;;;5157554;27;20279;-74
2022/05/07 07:10:29;;;;;;;;;;;11.50;99.90;;;;;;5157574;27;19907;-74
2022/05/07 07:12:55;;;;;;;;;;;11.50;99.90;;;;;;5156775;27;20514;-75
2022/05/07 07:15:20;;;;;;;;;;;11.60;99.90;;;;;;5157482;27;19915;-75
2022/05/07 07:17:46;;;;;;;;;;;11.70;99.90;;;;;;5156869;27;19952;-75
2022/05/07 07:20:11;;;;;;;;;;;11.60;99.90;;;;;;5157591;27;19907;-75
2022/05/07 07:22:37;;;;;;;;;;;11.70;99.90;;;;;;5157387;27;19959;-76
2022/05/07 07:25:03;;;;;;;;;;;11.70;99.90;;;;;;5138994;27;20009;-76
2022/05/07 07:27:28;;;;;;;;;;;11.70;99.90;;;;;;5157384;27;20009;-76
2022/05/07 07:29:54;;;;;;;;;;;11.70;99.90;;;;;;5156762;27;19907;-75
2022/05/07 07:32:19;;;;;;;;;;;11.80;99.90;;;;;;5157352;27;19907;-75
2022/05/07 07:34:45;;;;;;;;;;;11.90;99.90;;;;;;5156469;27;20379;-75
2022/05/07 07:37:11;;;;;;;;;;;11.90;99.90;;;;;;5156875;27;19911;-75
2022/05/07 07:39:36;;;;;;;;;;;11.90;99.90;;;;;;5156798;27;20271;-75
2022/05/07 07:42:02;;;;;;;;;;;11.90;99.90;;;;;;5156479;27;20002;-75
2022/05/07 07:44:27;;;;;;;;;;;11.80;99.90;;;;;;5157132;27;19907;-75
2022/05/07 07:49:38;;;;;;;;;;;11.90;99.90;;;;;;5156310;27;20303;-75
2022/05/07 07:52:05;;;;;;;;;;;12.00;99.90;;;;;;5156795;27;20063;-75
2022/05/07 07:54:30;;;;;;;;;;;12.20;99.90;;;;;;5156390;27;19907;-75
2022/05/07 07:56:58;;;;;;;;;;;12.30;99.90;;;;;;5156000;27;20332;-75
2022/05/07 07:59:23;;;;;;;;;;;12.40;99.90;;;;;;5156340;27;19975;-75
2022/05/07 08:01:49;;;;;;;;;;;12.40;99.90;;;;;;5155653;27;20333;-75
2022/05/07 08:04:14;;;;;;;;;;;12.40;99.90;;;;;;5156602;27;19914;-76
2022/05/07 08:06:40;;;;;;;;;;;12.50;99.90;;;;;;5156158;27;19907;-75
2022/05/07 08:11:55;;;;;;;;;;;12.70;99.90;;;;;;5156047;27;19963;-76
2022/05/07 08:14:22;;;;;;;;;;;12.60;99.90;;;;;;5156173;27;19907;-75
2022/05/07 08:16:47;;;;;;;;;;;12.60;99.90;;;;;;5155636;27;19911;-75
2022/05/07 08:19:13;;;;;;;;;;;12.70;99.90;;;;;;5156299;27;19944;-75
2022/05/07 08:21:38;;;;;;;;;;;12.80;99.90;;;;;;5156080;27;19914;-75
2022/05/07 08:24:04;;;;;;;;;;;12.90;99.90;;;;;;5155695;27;19954;-75
2022/05/07 08:26:30;;;;;;;;;;;13.00;99.90;;;;;;5137066;27;19914;-75
2022/05/07 08:28:55;;;;;;;;;;;13.10;99.90;;;;;;5155389;27;20010;-75
2022/05/07 08:31:24;;;;;;;;;;;13.20;99.90;;;;;;5155588;27;19915;-74
2022/05/07 08:33:50;;;;;;;;;;;13.40;99.90;;;;;;5154970;27;20006;-75
2022/05/07 08:36:16;;;;;;;;;;;13.50;99.90;;;;;;5155526;27;19963;-74
2022/05/07 08:38:42;;;;;;;;;;;13.50;99.90;;;;;;5155545;27;19911;-74
2022/05/07 08:41:08;;;;;;;;;;;13.50;99.90;;;;;;5156029;27;20005;-74
2022/05/07 08:43:36;;;;;;;;;;;13.50;99.90;;;;;;5136749;27;19949;-74
2022/05/07 08:46:13;;;;;;;;;;;13.50;99.90;;;;;;5154387;27;19970;-74
2022/05/07 08:48:39;;;;;;;;;;;13.60;99.90;;;;;;5153938;27;19942;-75
2022/05/07 08:51:05;;;;;;;;;;;13.60;99.90;;;;;;5154091;27;19914;-74
2022/05/07 08:53:31;;;;;;;;;;;13.80;99.90;;;;;;5155218;27;19907;-74
2022/05/07 08:55:57;;;;;;;;;;;13.80;99.90;;;;;;5135768;27;19955;-74
2022/05/07 08:58:23;;;;;;;;;;;13.80;99.90;;;;;;5136189;27;20055;-75
2022/05/07 09:00:48;;;;;;;;;;;13.80;99.90;;;;;;5154578;27;19959;-75
2022/05/07 09:03:15;;;;;;;;;;;13.70;99.90;;;;;;5136635;27;19911;-75
2022/05/07 09:05:41;;;;;;;;;;;13.70;99.90;;;;;;5135707;27;20272;-75
2022/05/07 09:08:07;;;;;;;;;;;13.80;99.90;;;;;;5154284;27;20363;-76
2022/05/07 09:10:35;;;;;;;;;;;13.90;99.90;;;;;;5154859;27;20354;-75
2022/05/07 09:13:10;;;;;;;;;;;14.20;99.90;;;;;;5154611;27;20382;-75
2022/05/07 09:15:36;;;;;;;;;;;14.30;99.90;;;;;;5154930;27;20327;-75
2022/05/07 09:18:12;;;;;;;;;;;14.30;99.90;;;;;;5154185;27;20420;-76
2022/05/07 09:20:37;;;;;;;;;;;14.30;99.90;;;;;;5155206;27;19912;-76
2022/05/07 09:23:03;;;;;;;;;;;14.40;99.90;;;;;;5154408;27;19971;-75
2022/05/07 09:25:30;;;;;;;;;;;14.50;99.90;;;;;;5154929;27;20369;-75
2022/05/07 09:27:56;;;;;;;;;;;14.50;99.90;;;;;;5154428;27;19943;-76
2022/05/07 09:30:26;;;;;;;;;;;14.40;99.90;;;;;;5154793;27;20002;-74
2022/05/07 09:32:52;;;;;;;;;;;14.30;99.90;;;;;;5154350;27;19907;-75
2022/05/07 09:38:03;;;;;;;;;;;14.10;99.90;;;;;;5154061;27;19913;-75
2022/05/07 09:40:29;;;;;;;;;;;14.20;99.90;;;;;;5154789;27;20005;-74
2022/05/07 09:42:58;;;;;;;;;;;14.20;99.90;;;;;;5153950;27;19988;-74
2022/05/07 09:45:27;;;;;;;;;;;14.30;99.90;;;;;;5154618;27;19911;-74
2022/05/07 09:47:58;;;;;;;;;;;14.50;99.90;;;;;;5153992;27;20137;-74
2022/05/07 09:50:43;;;;;;;;;;;14.70;99.90;;;;;;5155035;27;19961;-74
2022/05/07 09:58:37;;;;;;;;;;;14.80;99.90;;;;;;5154773;27;19926;-74
2022/05/07 10:01:06;;;;;;;;;;;14.70;99.90;;;;;;5153884;27;20009;-74
2022/05/07 10:03:38;;;;;;;;;;;14.60;99.90;;;;;;5154508;27;19913;-75
2022/05/07 10:06:27;;;;;;;;;;;14.60;99.90;;;;;;5153717;27;19913;-74
2022/05/07 10:08:53;;;;;;;;;;;14.80;99.90;;;;;;5105472;27;19907;-74
2022/05/07 10:11:19;;;;;;;;;;;15.00;99.90;;;;;;5154273;27;19908;-74
2022/05/07 10:13:58;;;;;;;;;;;15.10;99.90;;;;;;5154344;27;19993;-75
2022/05/07 10:16:28;;;;;;;;;;;15.00;99.90;;;;;;5154707;27;19919;-74
2022/05/07 10:18:55;;;;;;;;;;;15.10;99.90;;;;;;5157819;27;19911;-75
2022/05/07 10:21:21;;;;;;;;;;;15.30;99.90;;;;;;5158367;27;20016;-74
2022/05/07 10:23:50;;;;;;;;;;;15.40;99.90;;;;;;5158447;27;19907;-74
2022/05/07 10:26:16;;;;;;;;;;;15.20;99.90;;;;;;5158650;27;19952;-74
2022/05/07 10:28:42;;;;;;;;;;;15.20;99.90;;;;;;5158548;27;20287;-74
2022/05/07 10:31:18;;;;;;;;;;;15.20;99.90;;;;;;5157824;27;19911;-75
2022/05/07 10:33:43;;;;;;;;;;;15.30;99.90;;;;;;5139904;27;20291;-74
2022/05/07 10:36:09;;;;;;;;;;;15.60;99.90;;;;;;5157520;27;19915;-74
2022/05/07 10:38:37;;;;;;;;;;;15.70;99.90;;;;;;5158263;27;19907;-74
2022/05/07 10:41:07;;;;;;;;;;;15.70;99.90;;;;;;5157510;27;19907;-75
2022/05/07 10:43:36;;;;;;;;;;;15.90;99.90;;;;;;5158147;27;19907;-74
2022/05/07 10:46:06;;;;;;;;;;;16.00;99.90;;;;;;5157557;27;19908;-74
2022/05/07 10:48:44;;;;;;;;;;;16.00;99.90;;;;;;5158143;27;19907;-75
2022/05/07 10:51:26;;;;;;;;;;;16.00;99.90;;;;;;5157148;27;19907;-74
2022/05/07 10:53:52;;;;;;;;;;;16.00;99.90;;;;;;5157176;27;19907;-75
2022/05/07 10:56:18;;;;;;;;;;;16.30;99.90;;;;;;5157725;27;19915;-75
2022/05/07 10:58:48;;;;;;;;;;;16.60;99.90;;;;;;5157733;27;19911;-75
2022/05/07 11:01:13;;;;;;;;;;;16.80;99.90;;;;;;5157157;27;20033;-75
2022/05/07 11:03:39;;;;;;;;;;;16.80;99.90;;;;;;5157577;27;19946;-75
2022/05/07 11:06:05;;;;;;;;;;;16.70;99.90;;;;;;5157389;27;19907;-76
2022/05/07 11:08:30;;;;;;;;;;;16.50;99.90;;;;;;5157784;27;20344;-75
2022/05/07 11:11:03;;;;;;;;;;;16.40;99.90;;;;;;5157249;27;19908;-74
2022/05/07 11:13:29;;;;;;;;;;;16.30;99.90;;;;;;5157623;27;20237;-75
2022/05/07 11:16:04;;;;;;;;;;;16.40;99.90;;;;;;5156360;27;19964;-75
2022/05/07 11:18:32;;;;;;;;;;;16.40;99.90;;;;;;5157526;27;19919;-75
2022/05/07 11:21:01;;;;;;;;;;;16.50;99.90;;;;;;5155403;27;19929;-75
2022/05/07 11:23:27;;;;;;;;;;;16.50;99.90;;;;;;5156959;27;19914;-75
2022/05/07 11:25:53;;;;;;;;;;;16.60;99.90;;;;;;5157440;27;19987;-75
2022/05/07 11:28:18;;;;;;;;;;;16.70;99.90;;;;;;5155857;27;19913;-75
2022/05/07 11:30:50;;;;;;;;;;;16.40;99.90;;;;;;5157033;27;19907;-75
2022/05/07 11:33:22;;;;;;;;;;;16.20;99.90;;;;;;5156053;27;20352;-75
2022/05/07 11:35:58;;;;;;;;;;;16.20;99.90;;;;;;5156783;27;19911;-75
2022/05/07 11:38:24;;;;;;;;;;;16.10;99.90;;;;;;5157300;27;19968;-75
2022/05/07 11:40:50;;;;;;;;;;;16.10;99.90;;;;;;5157054;27;19907;-75
2022/05/07 11:46:06;;;;;;;;;;;15.50;99.90;;;;;;5155326;27;19938;-75
2022/05/07 11:48:32;;;;;;;;;;;15.30;99.90;;;;;;5156620;27;19914;-76
2022/05/07 11:50:59;;;;;;;;;;;15.20;99.90;;;;;;5156060;27;19907;-75
2022/05/07 11:53:35;;;;;;;;;;;15.20;99.90;;;;;;5155552;27;20374;-76
2022/05/07 11:56:08;;;;;;;;;;;15.20;99.90;;;;;;5156071;27;19911;-76
2022/05/07 11:58:43;;;;;;;;;;;15.30;99.90;;;;;;5156435;27;19923;-75
2022/05/07 12:01:18;;;;;;;;;;;15.10;99.90;;;;;;5155382;27;20287;-76
2022/05/07 12:03:44;;;;;;;;;;;14.90;99.90;;;;;;5156213;27;19972;-76
2022/05/07 12:06:09;;;;;;;;;;;15.10;99.90;;;;;;5155592;27;20363;-76
2022/05/07 12:08:35;;;;;;;;;;;15.20;99.90;;;;;;5137137;27;19907;-76
2022/05/07 12:11:02;;;;;;;;;;;15.40;99.90;;;;;;5155251;27;19958;-76
2022/05/07 12:13:28;;;;;;;;;;;15.50;99.90;;;;;;5155770;27;19987;-75
2022/05/07 12:18:41;;;;;;;;;;;15.70;99.90;;;;;;5155371;27;19932;-76
2022/05/07 12:21:07;;;;;;;;;;;15.60;99.90;;;;;;5155138;27;19911;-76
2022/05/07 12:31:45;;;;;;;;;;;15.50;99.90;;;;;;5155597;27;20006;-76
2022/05/07 12:34:11;;;;;;;;;;;15.90;99.90;;;;;;5155175;27;19938;-76
2022/05/07 12:36:36;;;;;;;;;;;15.80;99.90;;;;;;5155160;27;19963;-76
2022/05/07 12:39:02;;;;;;;;;;;15.60;99.90;;;;;;5154536;27;19911;-76
2022/05/07 12:41:28;;;;;;;;;;;15.70;99.90;;;;;;5154926;27;19917;-76
2022/05/07 12:43:54;;;;;;;;;;;15.50;99.90;;;;;;5155106;27;19915;-76
2022/05/07 12:46:20;;;;;;;;;;;15.30;99.90;;;;;;5154383;27;19982;-77
2022/05/07 12:48:45;;;;;;;;;;;15.50;99.90;;;;;;5154878;27;19907;-76
2022/05/07 12:51:11;;;;;;;;;;;15.50;99.90;;;;;;5135970;27;19914;-76
2022/05/07 12:53:37;;;;;;;;;;;15.70;99.90;;;;;;5154781;27;19914;-76
2022/05/07 12:56:06;;;;;;;;;;;15.70;99.90;;;;;;5153953;27;19915;-76
2022/05/07 12:58:31;;;;;;;;;;;15.90;99.90;;;;;;5155197;27;20380;-75
2022/05/07 13:00:57;;;;;;;;;;;16.10;99.90;;;;;;5155271;27;19907;-76
2022/05/07 13:03:22;;;;;;;;;;;16.10;99.90;;;;;;5155252;27;20366;-75
2022/05/07 13:05:48;;;;;;;;;;;15.80;99.90;;;;;;5155385;27;19911;-75
2022/05/07 13:08:16;;;;;;;;;;;15.70;99.90;;;;;;5154564;27;19911;-75
2022/05/07 13:10:43;;;;;;;;;;;15.90;99.90;;;;;;5155359;27;19914;-75
2022/05/07 13:13:09;;;;;;;;;;;15.70;99.90;;;;;;5154569;27;20001;-75
2022/05/07 13:15:35;;;;;;;;;;;15.40;99.90;;;;;;5155128;27;20001;-75
2022/05/07 13:18:00;;;;;;;;;;;15.30;99.90;;;;;;5154507;27;19911;-75
2022/05/07 13:20:29;;;;;;;;;;;15.20;99.90;;;;;;5155016;27;20370;-75
2022/05/07 13:22:55;;;;;;;;;;;15.30;99.90;;;;;;5155030;27;20243;-74
2022/05/07 13:25:22;;;;;;;;;;;15.50;99.90;;;;;;5153809;27;19911;-74
2022/05/07 13:27:48;;;;;;;;;;;15.40;99.90;;;;;;5154864;27;19911;-76
2022/05/07 13:30:15;;;;;;;;;;;15.40;99.90;;;;;;5146445;27;19915;-76
2022/05/07 13:32:41;;;;;;;;;;;15.30;99.90;;;;;;5153037;27;19907;-76
2022/05/07 13:35:09;;;;;;;;;;;15.20;99.90;;;;;;5153878;27;19914;-75
2022/05/07 13:37:35;;;;;;;;;;;15.50;99.90;;;;;;5154537;27;20325;-75
2022/05/07 13:40:01;;;;;;;;;;;15.70;99.90;;;;;;5154132;27;19914;-76
2022/05/07 13:42:27;;;;;;;;;;;15.90;99.90;;;;;;5154881;27;19907;-75
2022/05/07 13:44:52;;;;;;;;;;;15.80;99.90;;;;;;5154797;27;19907;-75
2022/05/07 13:47:18;;;;;;;;;;;15.50;99.90;;;;;;5153429;27;20372;-76
2022/05/07 13:49:44;;;;;;;;;;;15.20;99.90;;;;;;5147933;27;19919;-76
2022/05/07 13:52:10;;;;;;;;;;;15.20;99.90;;;;;;5153582;27;19914;-75
2022/05/07 13:54:35;;;;;;;;;;;15.30;99.90;;;;;;5154549;27;19907;-75
2022/05/07 13:57:01;;;;;;;;;;;15.30;99.90;;;;;;5154065;27;19919;-75
2022/05/07 13:59:28;;;;;;;;;;;15.40;99.90;;;;;;5148468;27;20391;-75
2022/05/07 14:01:57;;;;;;;;;;;15.40;99.90;;;;;;5149849;27;19962;-76
2022/05/07 14:04:23;;;;;;;;;;;15.70;99.90;;;;;;5135656;27;20027;-76
2022/05/07 14:06:48;;;;;;;;;;;15.90;99.90;;;;;;5133855;28;20010;-75
2022/05/07 14:09:14;;;;;;;;;;;16.10;99.90;;;;;;5133192;28;20435;-76
2022/05/07 14:11:41;;;;;;;;;;;16.10;99.90;;;;;;5133724;28;20006;-76
2022/05/07 14:14:06;;;;;;;;;;;16.20;99.90;;;;;;5114693;28;20275;-75
2022/05/07 14:16:32;;;;;;;;;;;16.20;99.90;;;;;;5133614;28;19912;-76
2022/05/07 14:18:57;;;;;;;;;;;16.10;99.90;;;;;;5133708;28;19918;-76
2022/05/07 14:21:23;;;;;;;;;;;16.20;99.90;;;;;;5133110;28;20064;-76
2022/05/07 14:23:49;;;;;;;;;;;16.10;99.90;;;;;;5132879;28;19931;-76
2022/05/07 14:26:15;;;;;;;;;;;16.00;99.90;;;;;;5132722;28;19915;-76
2022/05/07 14:28:40;;;;;;;;;;;15.90;99.90;;;;;;5132852;28;19915;-77
2022/05/07 14:31:06;;;;;;;;;;;15.90;99.90;;;;;;5132061;28;19914;-77
2022/05/07 14:33:31;;;;;;;;;;;15.90;99.90;;;;;;5133260;28;19946;-77
2022/05/07 14:35:57;;;;;;;;;;;16.10;99.90;;;;;;5135678;27;20001;-77
2022/05/07 14:38:23;;;;;;;;;;;16.30;99.90;;;;;;5137657;27;20482;-77
2022/05/07 14:40:50;;;;;;;;;;;16.50;99.90;;;;;;5138163;27;19997;-78
2022/05/07 14:43:16;;;;;;;;;;;16.70;99.90;;;;;;5153006;27;20351;-77
2022/05/07 14:45:41;;;;;;;;;;;16.80;99.90;;;;;;5135310;27;19914;-77
2022/05/07 14:48:07;;;;;;;;;;;16.80;99.90;;;;;;5153254;27;19908;-77